Time;durP1;ratioP1;P1;durP2;ratioP2;P2;SDS_P1;SDS_P2;PMS_P1;PMS_P2;Temp;Humidity;BMP_temperature;BMP_pressure;BME280_temperature;BME280_humidity;BME280_pressure;Samples;Min_cycle;Max_cycle;Signal;HPM_P1;HPM_P2
2024/01/21 00:01:29;;;;;;;22.08;11.60;;;;;;;;;;4965955;28;20065;-84
2024/01/21 00:03:56;;;;;;;22.33;11.18;;;;;;;;;;4966535;28;20073;-86
2024/01/21 00:06:31;;;;;;;19.70;10.98;;;;;;;;;;5000797;28;20101;-86
2024/01/21 00:09:04;;;;;;;18.40;10.65;;;;;;;;;;4998185;28;20565;-86
2024/01/21 00:11:35;;;;;;;19.90;11.35;;;;;;;;;;4992303;28;20062;-87
2024/01/21 00:14:10;;;;;;;23.45;12.50;;;;;;;;;;4999668;28;20085;-87
2024/01/21 00:16:38;;;;;;;26.00;11.85;;;;;;;;;;4999019;28;20074;-86
2024/01/21 00:19:10;;;;;;;20.17;12.05;;;;;;;;;;4981989;28;20051;-87
2024/01/21 00:21:47;;;;;;;26.60;13.45;;;;;;;;;;4985730;28;20050;-87
2024/01/21 00:24:20;;;;;;;20.70;10.95;;;;;;;;;;4997444;28;20051;-86
2024/01/21 00:26:53;;;;;;;26.38;13.02;;;;;;;;;;4977187;28;20145;-86
2024/01/21 00:29:29;;;;;;;21.33;13.32;;;;;;;;;;4990644;28;20438;-86
2024/01/21 00:31:57;;;;;;;28.63;13.95;;;;;;;;;;4998866;28;20466;-84
2024/01/21 00:34:25;;;;;;;27.08;13.73;;;;;;;;;;4981783;28;20478;-83
2024/01/21 00:37:05;;;;;;;23.92;12.90;;;;;;;;;;4980773;28;20062;-82
2024/01/21 00:39:33;;;;;;;24.30;12.77;;;;;;;;;;4964327;28;20423;-82
2024/01/21 00:42:02;;;;;;;28.10;13.48;;;;;;;;;;4964988;28;20094;-82
2024/01/21 00:44:36;;;;;;;29.52;13.93;;;;;;;;;;4964821;28;20125;-83
2024/01/21 00:47:04;;;;;;;30.90;14.50;;;;;;;;;;4986705;28;20054;-82
2024/01/21 00:49:35;;;;;;;23.02;12.35;;;;;;;;;;4966544;28;20216;-83
2024/01/21 00:52:05;;;;;;;28.65;13.05;;;;;;;;;;4970345;28;20093;-84
2024/01/21 00:54:38;;;;;;;26.50;13.52;;;;;;;;;;4963610;28;20061;-83
2024/01/21 00:57:06;;;;;;;26.08;12.95;;;;;;;;;;4998543;28;20121;-83
2024/01/21 00:59:34;;;;;;;23.42;12.20;;;;;;;;;;4963046;28;20090;-83
2024/01/21 01:02:04;;;;;;;21.40;11.27;;;;;;;;;;4979147;28;20058;-83
2024/01/21 01:04:38;;;;;;;29.33;13.50;;;;;;;;;;4961788;28;20499;-83
2024/01/21 01:07:08;;;;;;;28.60;12.15;;;;;;;;;;4983373;28;20058;-82
2024/01/21 01:09:38;;;;;;;19.65;11.90;;;;;;;;;;4969386;28;20097;-82
2024/01/21 01:12:06;;;;;;;25.00;14.15;;;;;;;;;;4971793;28;20082;-82
2024/01/21 01:14:34;;;;;;;25.08;11.98;;;;;;;;;;4971821;28;20046;-82
2024/01/21 01:17:04;;;;;;;28.65;12.90;;;;;;;;;;4986572;28;20277;-82
2024/01/21 01:19:35;;;;;;;19.52;11.82;;;;;;;;;;4969739;28;20133;-82
2024/01/21 01:22:04;;;;;;;23.33;12.25;;;;;;;;;;4973135;28;20137;-82
2024/01/21 01:24:35;;;;;;;27.02;13.20;;;;;;;;;;4984850;28;20130;-83
2024/01/21 01:27:03;;;;;;;26.50;13.05;;;;;;;;;;5004467;28;20541;-82
2024/01/21 01:29:33;;;;;;;21.75;12.68;;;;;;;;;;5005250;28;20426;-82
2024/01/21 01:32:08;;;;;;;25.65;13.18;;;;;;;;;;4972151;28;20534;-82
2024/01/21 01:34:38;;;;;;;20.48;11.88;;;;;;;;;;4981114;28;20057;-81
2024/01/21 01:37:11;;;;;;;22.60;11.75;;;;;;;;;;4977366;28;20066;-81
2024/01/21 01:39:39;;;;;;;22.80;11.07;;;;;;;;;;4976139;28;20080;-84
2024/01/21 01:42:06;;;;;;;19.95;11.63;;;;;;;;;;4980261;28;20104;-84
2024/01/21 01:44:34;;;;;;;25.88;12.60;;;;;;;;;;4991934;28;20133;-84
2024/01/21 01:47:01;;;;;;;19.38;11.93;;;;;;;;;;4963796;28;20061;-84
2024/01/21 01:49:29;;;;;;;18.45;10.88;;;;;;;;;;4959210;28;20101;-84
2024/01/21 01:51:57;;;;;;;16.30;9.57;;;;;;;;;;4975700;28;20137;-83
2024/01/21 01:54:29;;;;;;;14.57;9.25;;;;;;;;;;4974247;28;20081;-83
2024/01/21 01:57:04;;;;;;;17.23;8.60;;;;;;;;;;4974623;28;20105;-83
2024/01/21 01:59:38;;;;;;;15.52;8.52;;;;;;;;;;4975019;28;20058;-83
2024/01/21 02:02:10;;;;;;;16.80;9.40;;;;;;;;;;4963342;28;20061;-83
2024/01/21 02:04:40;;;;;;;13.65;8.25;;;;;;;;;;4958387;28;20043;-83
2024/01/21 02:07:10;;;;;;;14.57;8.25;;;;;;;;;;4976431;28;20514;-82
2024/01/21 02:09:42;;;;;;;15.75;8.98;;;;;;;;;;4973453;28;20058;-82
2024/01/21 02:12:12;;;;;;;;;;;;;;;;;;4962573;28;20062;-82
2024/01/21 02:14:50;;;;;;;16.95;8.27;;;;;;;;;;4994377;28;19921;-82
2024/01/21 02:17:21;;;;;;;16.02;8.23;;;;;;;;;;4965088;28;20116;-83
2024/01/21 02:19:49;;;;;;;14.82;8.02;;;;;;;;;;4972666;28;20065;-82
2024/01/21 02:22:20;;;;;;;14.43;7.43;;;;;;;;;;4989037;28;20050;-83
2024/01/21 02:24:48;;;;;;;14.98;8.45;;;;;;;;;;4964659;28;20050;-83
2024/01/21 02:27:33;;;;;;;15.43;8.38;;;;;;;;;;4996772;28;20428;-84
2024/01/21 02:30:09;;;;;;;13.07;7.88;;;;;;;;;;4977409;28;20061;-84
2024/01/21 02:32:38;;;;;;;15.10;8.07;;;;;;;;;;4970827;28;20100;-84
2024/01/21 02:35:09;;;;;;;12.38;7.28;;;;;;;;;;4975702;28;20081;-84
2024/01/21 02:37:41;;;;;;;14.75;7.25;;;;;;;;;;4990788;28;20104;-84
2024/01/21 02:40:12;;;;;;;18.17;7.93;;;;;;;;;;4976129;28;20081;-86
2024/01/21 02:42:40;;;;;;;12.38;7.72;;;;;;;;;;4989514;28;20417;-86
2024/01/21 02:45:10;;;;;;;12.55;7.18;;;;;;;;;;4975541;28;20113;-84
2024/01/21 02:47:38;;;;;;;12.30;7.03;;;;;;;;;;4991680;28;20050;-84
2024/01/21 02:50:11;;;;;;;11.10;7.13;;;;;;;;;;4991594;28;20149;-84
2024/01/21 02:52:41;;;;;;;12.88;7.15;;;;;;;;;;4956357;28;20062;-84
2024/01/21 02:55:11;;;;;;;13.93;7.78;;;;;;;;;;4960345;28;20065;-85
2024/01/21 02:57:41;;;;;;;11.38;7.38;;;;;;;;;;4977691;28;20058;-84
2024/01/21 03:00:15;;;;;;;15.80;7.38;;;;;;;;;;4977258;28;20112;-83
2024/01/21 03:02:43;;;;;;;12.27;6.75;;;;;;;;;;4974631;28;20050;-83
2024/01/21 03:05:29;;;;;;;13.85;7.68;;;;;;;;;;4993041;28;20490;-84
2024/01/21 03:08:02;;;;;;;12.90;6.88;;;;;;;;;;4992556;28;20110;-83
2024/01/21 03:10:30;;;;;;;12.45;6.65;;;;;;;;;;4973860;28;20051;-84
2024/01/21 03:12:57;;;;;;;14.27;6.97;;;;;;;;;;4990159;28;20108;-84
2024/01/21 03:15:25;;;;;;;11.20;6.15;;;;;;;;;;4992902;28;20528;-84
2024/01/21 03:17:59;;;;;;;10.00;5.85;;;;;;;;;;4961974;28;20050;-84
2024/01/21 03:20:27;;;;;;;14.38;5.47;;;;;;;;;;4974179;28;20051;-85
2024/01/21 03:22:54;;;;;;;9.30;5.47;;;;;;;;;;4972799;28;20457;-85
2024/01/21 03:25:22;;;;;;;7.95;5.68;;;;;;;;;;4974255;28;20476;-85
2024/01/21 03:27:50;;;;;;;10.20;6.22;;;;;;;;;;4991339;28;20114;-85
2024/01/21 03:30:19;;;;;;;8.10;5.13;;;;;;;;;;4979813;28;20050;-85
2024/01/21 03:32:49;;;;;;;8.35;5.10;;;;;;;;;;4963651;28;20050;-85
2024/01/21 03:35:18;;;;;;;10.60;5.53;;;;;;;;;;4977252;28;20058;-85
2024/01/21 03:37:46;;;;;;;11.52;5.22;;;;;;;;;;4992233;28;20054;-85
2024/01/21 03:40:14;;;;;;;9.43;5.20;;;;;;;;;;4964063;28;20058;-85
2024/01/21 03:42:47;;;;;;;11.02;5.75;;;;;;;;;;4987192;28;20051;-85
2024/01/21 03:45:25;;;;;;;12.55;6.60;;;;;;;;;;4991247;28;20456;-86
2024/01/21 03:47:53;;;;;;;11.88;5.85;;;;;;;;;;4991568;28;20483;-86
2024/01/21 03:51:03;;;;;;;21.70;6.97;;;;;;;;;;4986299;28;20042;-86
2024/01/21 03:53:48;;;;;;;12.30;6.88;;;;;;;;;;4995253;28;20050;-84
2024/01/21 03:56:19;;;;;;;11.02;5.90;;;;;;;;;;4970705;28;20136;-83
2024/01/21 03:58:48;;;;;;;12.40;6.70;;;;;;;;;;4981191;28;20125;-87
2024/01/21 04:01:17;;;;;;;11.15;6.90;;;;;;;;;;4978118;28;20482;-85
2024/01/21 04:03:46;;;;;;;10.25;6.00;;;;;;;;;;4996331;28;20074;-85
2024/01/21 04:06:15;;;;;;;13.02;6.50;;;;;;;;;;4987827;28;20058;-85
2024/01/21 04:08:44;;;;;;;10.60;6.13;;;;;;;;;;4984850;28;20084;-85
2024/01/21 04:11:14;;;;;;;12.32;6.72;;;;;;;;;;4983098;28;20543;-85
2024/01/21 04:13:43;;;;;;;10.60;6.05;;;;;;;;;;4965164;28;20051;-85
2024/01/21 04:16:11;;;;;;;9.38;5.82;;;;;;;;;;5001130;28;20153;-86
2024/01/21 04:18:40;;;;;;;10.52;6.95;;;;;;;;;;4969576;28;20050;-85
2024/01/21 04:21:12;;;;;;;11.60;6.20;;;;;;;;;;4963524;28;20062;-85
2024/01/21 04:23:40;;;;;;;9.68;5.45;;;;;;;;;;4996941;28;20057;-84
2024/01/21 04:26:09;;;;;;;12.02;6.10;;;;;;;;;;4982961;28;20050;-84
2024/01/21 04:28:37;;;;;;;10.18;5.70;;;;;;;;;;4984012;28;20054;-86
2024/01/21 04:31:05;;;;;;;12.43;5.63;;;;;;;;;;4984135;28;20421;-85
2024/01/21 04:33:36;;;;;;;11.70;5.25;;;;;;;;;;4980916;28;20059;-86
2024/01/21 04:36:04;;;;;;;10.07;5.95;;;;;;;;;;4984860;28;20124;-86
2024/01/21 04:38:33;;;;;;;9.15;6.20;;;;;;;;;;4968206;28;20105;-85
2024/01/21 04:41:00;;;;;;;10.07;5.90;;;;;;;;;;4980864;28;20079;-85
2024/01/21 04:43:28;;;;;;;8.52;5.75;;;;;;;;;;4953722;28;20498;-86
2024/01/21 04:45:59;;;;;;;11.57;6.32;;;;;;;;;;4965231;28;20058;-86
2024/01/21 04:48:27;;;;;;;9.70;6.18;;;;;;;;;;4980777;28;20069;-85
2024/01/21 04:50:55;;;;;;;9.02;5.53;;;;;;;;;;4979429;28;20065;-85
2024/01/21 04:53:26;;;;;;;10.23;5.57;;;;;;;;;;4990618;28;20054;-85
2024/01/21 04:55:57;;;;;;;12.07;6.38;;;;;;;;;;4997514;28;20062;-85
2024/01/21 04:58:24;;;;;;;10.13;5.68;;;;;;;;;;4979237;28;20057;-82
2024/01/21 05:00:52;;;;;;;14.18;7.22;;;;;;;;;;4990132;28;20141;-83
2024/01/21 05:03:20;;;;;;;9.48;5.43;;;;;;;;;;4969762;28;20054;-83
2024/01/21 05:05:49;;;;;;;12.45;5.57;;;;;;;;;;4988415;28;20058;-86
2024/01/21 05:08:19;;;;;;;10.50;5.15;;;;;;;;;;4972769;28;20109;-84
2024/01/21 05:10:47;;;;;;;8.98;5.03;;;;;;;;;;4992166;28;20512;-85
2024/01/21 05:13:15;;;;;;;8.77;5.30;;;;;;;;;;4991958;28;20090;-84
2024/01/21 05:15:46;;;;;;;10.60;5.22;;;;;;;;;;4972768;28;20133;-86
2024/01/21 05:18:13;;;;;;;8.00;5.35;;;;;;;;;;4975934;28;20062;-86
2024/01/21 05:20:42;;;;;;;8.52;5.43;;;;;;;;;;4959723;28;20502;-86
2024/01/21 05:23:09;;;;;;;10.45;5.30;;;;;;;;;;4975421;28;20059;-86
2024/01/21 05:25:36;;;;;;;10.40;5.75;;;;;;;;;;4978166;28;20050;-88
2024/01/21 05:28:04;;;;;;;8.80;5.60;;;;;;;;;;4979994;28;20457;-86
2024/01/21 05:30:35;;;;;;;10.50;5.85;;;;;;;;;;4988288;28;20058;-86
2024/01/21 05:33:04;;;;;;;10.30;5.20;;;;;;;;;;4973612;28;20117;-85
2024/01/21 05:35:35;;;;;;;11.93;6.03;;;;;;;;;;4963323;28;20097;-84
2024/01/21 05:38:03;;;;;;;12.00;5.97;;;;;;;;;;4958757;28;20065;-84
2024/01/21 05:40:31;;;;;;;12.20;5.88;;;;;;;;;;4973226;28;20065;-85
2024/01/21 05:43:01;;;;;;;11.38;5.57;;;;;;;;;;4961056;28;20054;-84
2024/01/21 05:45:33;;;;;;;13.23;6.75;;;;;;;;;;4977711;28;20054;-86
2024/01/21 05:48:01;;;;;;;13.73;6.68;;;;;;;;;;4974026;28;20074;-85
2024/01/21 05:50:29;;;;;;;11.85;6.28;;;;;;;;;;4953704;28;20062;-87
2024/01/21 05:53:05;;;;;;;12.85;7.43;;;;;;;;;;4974141;28;20058;-87
2024/01/21 05:55:34;;;;;;;11.10;6.35;;;;;;;;;;4967224;28;20529;-87
2024/01/21 05:58:02;;;;;;;8.07;5.78;;;;;;;;;;4954616;28;20069;-88
2024/01/21 06:00:31;;;;;;;9.65;6.22;;;;;;;;;;4954803;28;20566;-86
2024/01/21 06:02:59;;;;;;;11.23;6.30;;;;;;;;;;4993348;28;20057;-86
2024/01/21 06:05:28;;;;;;;11.77;6.35;;;;;;;;;;4972167;28;20050;-86
2024/01/21 06:08:17;;;;;;;13.23;6.80;;;;;;;;;;4976165;28;20304;-87
2024/01/21 06:10:47;;;;;;;13.25;6.63;;;;;;;;;;4951496;28;20053;-86
2024/01/21 06:13:20;;;;;;;10.45;6.65;;;;;;;;;;4957309;28;20145;-87
2024/01/21 06:15:49;;;;;;;11.70;6.55;;;;;;;;;;4956397;28;20086;-86
2024/01/21 06:18:17;;;;;;;10.25;5.75;;;;;;;;;;4970380;28;20423;-86
2024/01/21 06:20:45;;;;;;;14.35;7.15;;;;;;;;;;4971290;28;20137;-88
2024/01/21 06:23:14;;;;;;;10.65;6.60;;;;;;;;;;4974405;28;20109;-87
2024/01/21 06:25:45;;;;;;;12.70;7.18;;;;;;;;;;4959039;28;20050;-88
2024/01/21 06:28:16;;;;;;;12.45;6.13;;;;;;;;;;4967583;28;20065;-88
2024/01/21 06:30:45;;;;;;;12.80;6.57;;;;;;;;;;4978204;28;20058;-87
2024/01/21 06:33:13;;;;;;;15.82;6.55;;;;;;;;;;4958616;28;20057;-87
2024/01/21 06:35:46;;;;;;;12.45;6.30;;;;;;;;;;4971493;28;20418;-87
2024/01/21 06:38:14;;;;;;;11.90;6.70;;;;;;;;;;4974939;28;20085;-86
2024/01/21 06:40:44;;;;;;;11.82;6.38;;;;;;;;;;4990604;28;20112;-86
2024/01/21 06:43:12;;;;;;;10.50;6.20;;;;;;;;;;4958353;28;20054;-86
2024/01/21 06:45:40;;;;;;;14.32;7.03;;;;;;;;;;4975035;28;20477;-86
2024/01/21 06:48:09;;;;;;;11.02;6.53;;;;;;;;;;4991237;28;20058;-86
2024/01/21 06:50:38;;;;;;;12.20;6.90;;;;;;;;;;4957709;28;20066;-86
2024/01/21 06:53:07;;;;;;;11.80;7.53;;;;;;;;;;4961079;28;20086;-85
2024/01/21 06:55:37;;;;;;;15.38;7.72;;;;;;;;;;4974967;28;20133;-87
2024/01/21 06:58:06;;;;;;;18.63;8.55;;;;;;;;;;4958231;28;20054;-85
2024/01/21 07:00:37;;;;;;;22.02;9.25;;;;;;;;;;4969098;28;20051;-84
2024/01/21 07:03:05;;;;;;;21.77;9.18;;;;;;;;;;4993889;28;20062;-85
2024/01/21 07:05:34;;;;;;;15.80;8.13;;;;;;;;;;4980645;28;20051;-82
2024/01/21 07:08:05;;;;;;;14.52;7.47;;;;;;;;;;4993734;28;20113;-84
2024/01/21 07:10:33;;;;;;;14.02;7.60;;;;;;;;;;4995774;28;20133;-84
2024/01/21 07:13:02;;;;;;;12.38;6.25;;;;;;;;;;4980407;28;20058;-83
2024/01/21 07:15:31;;;;;;;11.35;7.07;;;;;;;;;;4980548;28;20058;-84
2024/01/21 07:17:59;;;;;;;12.73;6.88;;;;;;;;;;4978229;28;20069;-84
2024/01/21 07:20:28;;;;;;;11.38;7.30;;;;;;;;;;4977107;28;20050;-83
2024/01/21 07:22:57;;;;;;;15.10;7.05;;;;;;;;;;4974064;28;20137;-84
2024/01/21 07:25:25;;;;;;;14.98;7.75;;;;;;;;;;4983344;28;20722;-86
2024/01/21 07:27:53;;;;;;;13.20;7.13;;;;;;;;;;4965681;28;20055;-84
2024/01/21 07:30:24;;;;;;;11.68;7.35;;;;;;;;;;4978513;28;20513;-84
2024/01/21 07:32:53;;;;;;;16.52;8.10;;;;;;;;;;4980122;28;20125;-81
2024/01/21 07:35:22;;;;;;;12.70;6.95;;;;;;;;;;4984747;28;20050;-86
2024/01/21 07:37:54;;;;;;;13.35;7.80;;;;;;;;;;4980363;28;20514;-81
2024/01/21 07:40:22;;;;;;;11.48;7.10;;;;;;;;;;4980857;28;20058;-81
2024/01/21 07:42:50;;;;;;;11.55;7.63;;;;;;;;;;4960576;28;20506;-77
2024/01/21 07:45:18;;;;;;;12.23;7.78;;;;;;;;;;4970469;28;20074;-79
2024/01/21 07:47:52;;;;;;;12.82;7.15;;;;;;;;;;4996020;28;20077;-79
2024/01/21 07:50:21;;;;;;;13.43;8.00;;;;;;;;;;4959915;28;20065;-78
2024/01/21 07:52:50;;;;;;;18.10;9.98;;;;;;;;;;4959394;28;20510;-79
2024/01/21 07:55:18;;;;;;;26.45;12.50;;;;;;;;;;4973034;28;20656;-78
2024/01/21 07:57:46;;;;;;;22.85;13.05;;;;;;;;;;4960812;28;20558;-79
2024/01/21 08:00:15;;;;;;;19.88;11.57;;;;;;;;;;4973021;28;20054;-78
2024/01/21 08:02:43;;;;;;;14.88;9.70;;;;;;;;;;4958239;28;20063;-79
2024/01/21 08:05:12;;;;;;;16.77;9.15;;;;;;;;;;4963495;28;20054;-79
2024/01/21 08:07:40;;;;;;;14.95;8.20;;;;;;;;;;4976795;28;20058;-78
2024/01/21 08:10:14;;;;;;;16.45;8.75;;;;;;;;;;4978369;28;20053;-79
2024/01/21 08:12:42;;;;;;;14.85;7.82;;;;;;;;;;4960608;28;20058;-78
2024/01/21 08:15:12;;;;;;;12.50;7.53;;;;;;;;;;4979215;28;20135;-79
2024/01/21 08:17:41;;;;;;;11.20;7.45;;;;;;;;;;4978576;28;20423;-79
2024/01/21 08:20:12;;;;;;;13.02;7.40;;;;;;;;;;4980328;28;20715;-79
2024/01/21 08:22:46;;;;;;;11.52;7.30;;;;;;;;;;4963033;28;20051;-79
2024/01/21 08:25:18;;;;;;;11.38;6.18;;;;;;;;;;4973264;28;20050;-79
2024/01/21 08:27:46;;;;;;;10.93;6.88;;;;;;;;;;4979801;28;20059;-79
2024/01/21 08:30:15;;;;;;;12.18;7.38;;;;;;;;;;4984802;28;20081;-79
2024/01/21 08:32:46;;;;;;;11.07;6.68;;;;;;;;;;4979355;28;20058;-79
2024/01/21 08:35:22;;;;;;;10.15;6.45;;;;;;;;;;4989348;28;20046;-80
2024/01/21 08:37:50;;;;;;;11.75;7.18;;;;;;;;;;4995588;28;20054;-79
2024/01/21 08:40:21;;;;;;;11.68;6.50;;;;;;;;;;4980675;28;20058;-78
2024/01/21 08:42:49;;;;;;;11.90;7.35;;;;;;;;;;4996922;28;20058;-79
2024/01/21 08:45:21;;;;;;;10.70;6.50;;;;;;;;;;4978505;28;20080;-79
2024/01/21 08:47:52;;;;;;;10.77;6.75;;;;;;;;;;4966165;28;20136;-80
2024/01/21 08:50:20;;;;;;;11.38;7.25;;;;;;;;;;4981015;28;20126;-79
2024/01/21 08:52:52;;;;;;;10.90;6.65;;;;;;;;;;4986841;28;20753;-79
2024/01/21 08:55:22;;;;;;;10.93;7.25;;;;;;;;;;4990706;28;20054;-80
2024/01/21 08:57:53;;;;;;;11.15;7.07;;;;;;;;;;4986494;28;20061;-80
2024/01/21 09:00:21;;;;;;;11.40;6.60;;;;;;;;;;5003379;28;20085;-80
2024/01/21 09:02:53;;;;;;;9.45;6.75;;;;;;;;;;4994379;28;20054;-83
2024/01/21 09:05:28;;;;;;;11.05;6.53;;;;;;;;;;4961402;28;20054;-83
2024/01/21 09:07:59;;;;;;;12.02;6.88;;;;;;;;;;4990937;28;20050;-81
2024/01/21 09:10:36;;;;;;;11.73;6.18;;;;;;;;;;4989556;28;20570;-82
2024/01/21 09:13:10;;;;;;;10.27;6.25;;;;;;;;;;4977848;28;20148;-79
2024/01/21 09:15:42;;;;;;;10.60;6.47;;;;;;;;;;4978285;28;20566;-79
2024/01/21 09:18:13;;;;;;;9.90;6.47;;;;;;;;;;4976448;28;20062;-79
2024/01/21 09:20:46;;;;;;;11.32;6.55;;;;;;;;;;5006472;28;20773;-78
2024/01/21 09:23:14;;;;;;;10.32;6.80;;;;;;;;;;4977793;28;20049;-79
2024/01/21 09:25:45;;;;;;;9.57;6.53;;;;;;;;;;4971180;28;20105;-79
2024/01/21 09:28:16;;;;;;;11.63;6.60;;;;;;;;;;4970378;28;20141;-79
2024/01/21 09:30:50;;;;;;;10.43;6.68;;;;;;;;;;4982201;28;20046;-79
2024/01/21 09:33:21;;;;;;;10.77;6.75;;;;;;;;;;4987082;28;20116;-79
2024/01/21 09:35:53;;;;;;;10.65;6.82;;;;;;;;;;4961681;28;20482;-79
2024/01/21 09:38:23;;;;;;;10.50;6.47;;;;;;;;;;4976125;28;20049;-80
2024/01/21 09:41:07;;;;;;;11.52;6.88;;;;;;;;;;4983786;28;20129;-80
2024/01/21 09:43:44;;;;;;;11.90;7.22;;;;;;;;;;4985553;28;20528;-80
2024/01/21 09:46:17;;;;;;;16.00;7.28;;;;;;;;;;4962823;28;20054;-80
2024/01/21 09:48:45;;;;;;;9.88;6.32;;;;;;;;;;4972620;28;20517;-81
2024/01/21 09:51:12;;;;;;;9.45;7.07;;;;;;;;;;4990895;28;20054;-80
2024/01/21 09:53:39;;;;;;;9.30;6.15;;;;;;;;;;4957399;28;20093;-80
2024/01/21 09:56:07;;;;;;;12.38;7.88;;;;;;;;;;4976501;28;20247;-80
2024/01/21 09:58:37;;;;;;;14.95;8.13;;;;;;;;;;4972992;28;20121;-80
2024/01/21 10:01:05;;;;;;;12.30;7.78;;;;;;;;;;4985532;28;20433;-80
2024/01/21 10:03:32;;;;;;;10.95;7.90;;;;;;;;;;4969892;28;20057;-80
2024/01/21 10:06:02;;;;;;;10.07;7.30;;;;;;;;;;4981625;28;20051;-80
2024/01/21 10:08:29;;;;;;;10.63;6.18;;;;;;;;;;4973063;28;20434;-79
2024/01/21 10:11:02;;;;;;;8.80;6.25;;;;;;;;;;4979307;28;20058;-79
2024/01/21 10:13:38;;;;;;;10.68;6.93;;;;;;;;;;4957997;28;20102;-80
2024/01/21 10:16:06;;;;;;;9.50;6.70;;;;;;;;;;4987841;28;20046;-80
2024/01/21 10:18:34;;;;;;;12.15;6.95;;;;;;;;;;4975113;28;20141;-80
2024/01/21 10:21:05;;;;;;;11.40;6.75;;;;;;;;;;4954158;28;20057;-80
2024/01/21 10:23:33;;;;;;;8.50;6.05;;;;;;;;;;4967279;28;20054;-80
2024/01/21 10:26:00;;;;;;;9.07;6.28;;;;;;;;;;4989974;28;20085;-80
2024/01/21 10:28:28;;;;;;;10.65;6.40;;;;;;;;;;4965883;28;20145;-80
2024/01/21 10:30:55;;;;;;;12.27;5.97;;;;;;;;;;4967742;28;20058;-80
2024/01/21 10:33:24;;;;;;;10.20;6.20;;;;;;;;;;4990444;28;20624;-79
2024/01/21 10:35:51;;;;;;;14.18;6.55;;;;;;;;;;4975885;28;20065;-79
2024/01/21 10:38:18;;;;;;;10.68;5.75;;;;;;;;;;4985545;28;20120;-80
2024/01/21 10:40:46;;;;;;;8.10;5.32;;;;;;;;;;4980256;28;20054;-80
2024/01/21 10:43:13;;;;;;;10.10;5.85;;;;;;;;;;4954402;28;20113;-81
2024/01/21 10:45:46;;;;;;;11.35;6.38;;;;;;;;;;4975446;28;20541;-80
2024/01/21 10:48:13;;;;;;;;;;;;;;;;;;4979086;28;20066;-80
2024/01/21 10:50:43;;;;;;;8.02;5.78;;;;;;;;;;4974838;28;19921;-81
2024/01/21 10:53:13;;;;;;;11.52;5.43;;;;;;;;;;4961593;28;20055;-80
2024/01/21 10:55:40;;;;;;;9.57;6.20;;;;;;;;;;4984122;28;20055;-81
2024/01/21 10:58:08;;;;;;;8.05;5.60;;;;;;;;;;4975731;28;20058;-81
2024/01/21 11:00:36;;;;;;;12.13;6.60;;;;;;;;;;4996484;28;20519;-81
2024/01/21 11:03:27;;;;;;;10.35;6.63;;;;;;;;;;4979863;28;20497;-81
2024/01/21 11:05:59;;;;;;;8.30;5.55;;;;;;;;;;4982360;28;20108;-82
2024/01/21 11:08:27;;;;;;;9.32;5.95;;;;;;;;;;4980595;28;20085;-81
2024/01/21 11:11:16;;;;;;;9.40;5.70;;;;;;;;;;4999990;28;20141;-81
2024/01/21 11:13:47;;;;;;;10.65;5.88;;;;;;;;;;4969522;28;20470;-81
2024/01/21 11:16:26;;;;;;;10.68;5.28;;;;;;;;;;4999965;28;20056;-81
2024/01/21 11:18:53;;;;;;;11.13;5.57;;;;;;;;;;4998433;28;20065;-81
2024/01/21 11:21:21;;;;;;;11.70;6.60;;;;;;;;;;4990821;28;20046;-80
2024/01/21 11:24:09;;;;;;;11.38;6.25;;;;;;;;;;4978920;28;20185;-83
2024/01/21 11:26:37;;;;;;;10.93;6.32;;;;;;;;;;4975019;28;20051;-82
2024/01/21 11:29:37;;;;;;;11.55;5.57;;;;;;;;;;4965665;28;20088;-82
2024/01/21 11:32:05;;;;;;;13.15;8.20;;;;;;;;;;4962137;28;20474;-82
2024/01/21 11:34:38;;;;;;;14.43;7.47;;;;;;;;;;4975960;28;20048;-84
2024/01/21 11:37:06;;;;;;;;;;;;;;;;;;5007497;28;20186;-81
2024/01/21 11:39:33;;;;;;;11.07;7.25;;;;;;;;;;4990269;28;19922;-81
2024/01/21 11:42:00;;;;;;;12.38;7.57;;;;;;;;;;4993251;28;20426;-81
2024/01/21 11:44:28;;;;;;;13.75;8.65;;;;;;;;;;4978292;28;20112;-82
2024/01/21 11:46:58;;;;;;;20.83;9.55;;;;;;;;;;4961024;28;20057;-81
2024/01/21 11:49:25;;;;;;;20.13;9.82;;;;;;;;;;4980655;28;20054;-81
2024/01/21 11:51:52;;;;;;;13.40;7.38;;;;;;;;;;4994746;28;20081;-80
2024/01/21 11:54:20;;;;;;;12.10;7.45;;;;;;;;;;4962859;28;20064;-81
2024/01/21 11:56:47;;;;;;;11.00;6.75;;;;;;;;;;4993187;28;20049;-81
2024/01/21 11:59:14;;;;;;;10.30;6.55;;;;;;;;;;4956960;28;20064;-80
2024/01/21 12:01:41;;;;;;;12.68;6.78;;;;;;;;;;4989161;28;20414;-79
2024/01/21 12:04:10;;;;;;;12.85;7.25;;;;;;;;;;4992634;28;20054;-80
2024/01/21 12:06:49;;;;;;;13.63;8.30;;;;;;;;;;4987775;28;20089;-80
2024/01/21 12:09:16;;;;;;;10.52;7.20;;;;;;;;;;4989771;28;20497;-80
2024/01/21 12:11:44;;;;;;;13.43;7.88;;;;;;;;;;4986522;28;20053;-79
2024/01/21 12:14:13;;;;;;;14.77;8.13;;;;;;;;;;5000700;28;20077;-83
2024/01/21 12:16:41;;;;;;;12.75;8.20;;;;;;;;;;4979370;28;20030;-81
2024/01/21 12:19:10;;;;;;;13.73;7.40;;;;;;;;;;5006520;28;20050;-81
2024/01/21 12:21:37;;;;;;;12.73;8.77;;;;;;;;;;4971175;28;20055;-82
2024/01/21 12:24:04;;;;;;;16.20;11.15;;;;;;;;;;4980122;28;20057;-82
2024/01/21 12:26:31;;;;;;;11.68;7.60;;;;;;;;;;4975518;28;20339;-82
2024/01/21 12:29:08;;;;;;;12.15;6.82;;;;;;;;;;4993527;28;20082;-81
2024/01/21 12:31:39;;;;;;;12.90;6.82;;;;;;;;;;4980507;28;20050;-82
2024/01/21 12:34:08;;;;;;;11.05;7.00;;;;;;;;;;4991071;28;20054;-80
2024/01/21 12:36:45;;;;;;;10.32;6.57;;;;;;;;;;4980774;28;20118;-78
2024/01/21 12:39:13;;;;;;;16.88;7.10;;;;;;;;;;4956150;28;20057;-81
2024/01/21 12:41:40;;;;;;;13.57;7.57;;;;;;;;;;4959489;28;20642;-82
2024/01/21 12:44:07;;;;;;;9.63;6.18;;;;;;;;;;4984723;28;20050;-81
2024/01/21 12:46:34;;;;;;;11.98;6.63;;;;;;;;;;4957606;28;20461;-81
2024/01/21 12:49:01;;;;;;;11.68;6.25;;;;;;;;;;4975790;28;20062;-81
2024/01/21 12:51:31;;;;;;;9.70;5.35;;;;;;;;;;4971096;28;20062;-81
2024/01/21 12:53:58;;;;;;;9.55;5.20;;;;;;;;;;4958407;28;20069;-81
2024/01/21 12:56:26;;;;;;;7.47;5.13;;;;;;;;;;4975299;28;20073;-81
2024/01/21 12:58:53;;;;;;;7.32;5.80;;;;;;;;;;4974959;28;20425;-81
2024/01/21 13:01:20;;;;;;;5.72;4.63;;;;;;;;;;4955799;28;20553;-81
2024/01/21 13:03:47;;;;;;;7.72;5.32;;;;;;;;;;4923438;28;35564;-81
2024/01/21 13:06:14;;;;;;;11.07;5.30;;;;;;;;;;4939520;28;20057;-81
2024/01/21 13:08:42;;;;;;;7.68;5.43;;;;;;;;;;4956651;28;20050;-81
2024/01/21 13:11:10;;;;;;;7.45;5.20;;;;;;;;;;4973700;28;20449;-81
2024/01/21 13:13:37;;;;;;;8.27;5.85;;;;;;;;;;4957117;28;20059;-81
2024/01/21 13:16:05;;;;;;;9.38;5.30;;;;;;;;;;4972149;28;20058;-78
2024/01/21 13:18:37;;;;;;;8.80;5.70;;;;;;;;;;4967866;28;20110;-81
2024/01/21 13:21:07;;;;;;;8.48;5.65;;;;;;;;;;4952127;28;20086;-81
2024/01/21 13:23:35;;;;;;;9.23;6.13;;;;;;;;;;4951450;28;20223;-82
2024/01/21 13:26:02;;;;;;;9.07;5.50;;;;;;;;;;4937048;28;20047;-81
2024/01/21 13:28:38;;;;;;;8.38;5.32;;;;;;;;;;4934663;28;20063;-81
2024/01/21 13:31:05;;;;;;;8.70;5.47;;;;;;;;;;4950337;28;20211;-81
2024/01/21 13:33:32;;;;;;;9.30;6.10;;;;;;;;;;4934637;28;20055;-81
2024/01/21 13:36:00;;;;;;;10.90;5.70;;;;;;;;;;4952363;28;20051;-81
2024/01/21 13:38:30;;;;;;;12.00;6.13;;;;;;;;;;4934770;28;20047;-81
2024/01/21 13:41:03;;;;;;;9.45;6.10;;;;;;;;;;4937073;28;20055;-81
2024/01/21 13:43:30;;;;;;;8.25;6.45;;;;;;;;;;4936828;28;20062;-81
2024/01/21 13:45:57;;;;;;;10.60;6.20;;;;;;;;;;4952703;28;20058;-81
2024/01/21 13:48:25;;;;;;;9.07;6.07;;;;;;;;;;4964346;28;20051;-82
2024/01/21 13:50:54;;;;;;;10.57;6.60;;;;;;;;;;4963215;28;20051;-81
2024/01/21 13:53:20;;;;;;;12.95;6.00;;;;;;;;;;4951480;28;20094;-81
2024/01/21 13:55:48;;;;;;;11.98;6.60;;;;;;;;;;4950279;28;20051;-81
2024/01/21 13:58:19;;;;;;;9.23;6.25;;;;;;;;;;4973144;28;20050;-81
2024/01/21 14:00:46;;;;;;;9.05;6.47;;;;;;;;;;4970066;28;20061;-81
2024/01/21 14:03:14;;;;;;;7.93;5.03;;;;;;;;;;4984108;28;20054;-82
2024/01/21 14:05:41;;;;;;;9.45;5.25;;;;;;;;;;4966909;28;20058;-81
2024/01/21 14:08:10;;;;;;;13.02;6.65;;;;;;;;;;4984460;28;20837;-81
2024/01/21 14:10:37;;;;;;;7.15;5.10;;;;;;;;;;4973654;28;20065;-81
2024/01/21 14:13:05;;;;;;;11.13;5.50;;;;;;;;;;4988672;28;20057;-81
2024/01/21 14:15:32;;;;;;;6.60;5.15;;;;;;;;;;4971981;28;20145;-81
2024/01/21 14:18:01;;;;;;;6.65;4.85;;;;;;;;;;4959428;28;20062;-81
2024/01/21 14:20:28;;;;;;;6.20;4.60;;;;;;;;;;4991490;28;20651;-81
2024/01/21 14:22:55;;;;;;;7.72;4.53;;;;;;;;;;4957435;28;20550;-81
2024/01/21 14:25:24;;;;;;;7.18;4.53;;;;;;;;;;4975181;28;20093;-82
2024/01/21 14:27:51;;;;;;;7.50;4.80;;;;;;;;;;4999546;28;20465;-81
2024/01/21 14:30:32;;;;;;;7.30;5.03;;;;;;;;;;4972334;28;20048;-82
2024/01/21 14:33:00;;;;;;;8.68;4.63;;;;;;;;;;4981178;28;20060;-81
2024/01/21 14:35:27;;;;;;;7.68;4.82;;;;;;;;;;4968934;28;20046;-82
2024/01/21 14:37:56;;;;;;;7.85;4.93;;;;;;;;;;4988060;28;20522;-82
2024/01/21 14:40:25;;;;;;;7.68;4.43;;;;;;;;;;4974882;28;20062;-81
2024/01/21 14:42:53;;;;;;;9.10;4.60;;;;;;;;;;4955453;28;20054;-81
2024/01/21 14:45:20;;;;;;;8.23;5.30;;;;;;;;;;4968203;28;20137;-81
2024/01/21 14:47:48;;;;;;;7.93;4.88;;;;;;;;;;4975275;28;20069;-81